Time;durP1;ratioP1;P1;durP2;ratioP2;P2;SDS_P1;SDS_P2;PMS_P1;PMS_P2;Temp;Humidity;BMP_temperature;BMP_pressure;BME280_temperature;BME280_humidity;BME280_pressure;Samples;Min_cycle;Max_cycle;Signal;HPM_P1;HPM_P2
2023/11/01 00:00:23;;;;;;;4.55;2.30;;;;;;;;;;5056716;28;20283;-89
2023/11/01 00:02:49;;;;;;;8.30;2.60;;;;;;;;;;5054871;28;20198;-88
2023/11/01 00:05:15;;;;;;;3.07;1.73;;;;;;;;;;5042975;28;20182;-89
2023/11/01 00:07:41;;;;;;;5.67;2.23;;;;;;;;;;5037160;28;20463;-89
2023/11/01 00:10:07;;;;;;;6.40;2.27;;;;;;;;;;5036366;28;20401;-89
2023/11/01 00:12:33;;;;;;;9.23;3.05;;;;;;;;;;5035003;28;20408;-89
2023/11/01 00:14:59;;;;;;;6.20;2.70;;;;;;;;;;5035901;28;20565;-89
2023/11/01 00:17:25;;;;;;;6.13;2.27;;;;;;;;;;5018595;28;20288;-88
2023/11/01 00:19:51;;;;;;;11.18;3.13;;;;;;;;;;5035666;28;20397;-88
2023/11/01 00:22:17;;;;;;;7.07;3.30;;;;;;;;;;5018239;28;20193;-88
2023/11/01 00:24:43;;;;;;;8.82;2.03;;;;;;;;;;5035651;28;20445;-88
2023/11/01 00:27:09;;;;;;;6.78;2.33;;;;;;;;;;5034169;28;20202;-88
2023/11/01 00:29:35;;;;;;;8.13;2.00;;;;;;;;;;5035075;28;20192;-87
2023/11/01 00:32:01;;;;;;;11.70;2.50;;;;;;;;;;5033545;28;20778;-87
2023/11/01 00:34:27;;;;;;;6.40;2.60;;;;;;;;;;5034533;28;20440;-87
2023/11/01 00:36:53;;;;;;;4.73;2.73;;;;;;;;;;5033838;28;20586;-87
2023/11/01 00:39:19;;;;;;;3.88;2.33;;;;;;;;;;5034330;28;20492;-87
2023/11/01 00:41:45;;;;;;;7.93;2.90;;;;;;;;;;5035040;28;20220;-87
2023/11/01 00:44:11;;;;;;;9.83;2.90;;;;;;;;;;5034257;28;20174;-87
2023/11/01 00:46:37;;;;;;;5.40;2.10;;;;;;;;;;5035190;28;20459;-87
2023/11/01 00:49:03;;;;;;;5.03;2.30;;;;;;;;;;5033834;28;20460;-87
2023/11/01 00:51:29;;;;;;;6.23;2.70;;;;;;;;;;5017873;28;20420;-87
2023/11/01 00:53:55;;;;;;;5.10;2.10;;;;;;;;;;5033618;28;20409;-88
2023/11/01 00:56:21;;;;;;;5.17;2.47;;;;;;;;;;5033589;28;20522;-88
2023/11/01 00:58:47;;;;;;;5.77;2.43;;;;;;;;;;5035332;28;20405;-88
2023/11/01 01:01:13;;;;;;;9.40;2.73;;;;;;;;;;5035124;28;20802;-88
2023/11/01 01:03:39;;;;;;;8.00;2.83;;;;;;;;;;5033490;28;20429;-88
2023/11/01 01:06:05;;;;;;;8.30;2.50;;;;;;;;;;5033510;28;20452;-88
2023/11/01 01:08:32;;;;;;;8.13;2.75;;;;;;;;;;5033941;28;20758;-88
2023/11/01 01:10:59;;;;;;;6.20;2.45;;;;;;;;;;5034229;28;20685;-89
2023/11/01 01:13:25;;;;;;;5.80;2.27;;;;;;;;;;5033195;28;20186;-88
2023/11/01 01:15:51;;;;;;;8.73;2.15;;;;;;;;;;5033452;28;20463;-88
2023/11/01 01:18:20;;;;;;;8.77;3.95;;;;;;;;;;5033488;28;20217;-87
2023/11/01 01:20:46;;;;;;;9.52;2.53;;;;;;;;;;5033409;28;20184;-88
2023/11/01 01:23:12;;;;;;;8.18;3.55;;;;;;;;;;5034566;28;20185;-88
2023/11/01 01:25:38;;;;;;;7.10;2.60;;;;;;;;;;5025937;28;20556;-87
2023/11/01 01:28:04;;;;;;;8.77;2.78;;;;;;;;;;5033108;28;20209;-87
2023/11/01 01:30:30;;;;;;;8.15;3.28;;;;;;;;;;5034759;28;20219;-88
2023/11/01 01:32:56;;;;;;;3.80;2.70;;;;;;;;;;5047834;28;20189;-88
2023/11/01 01:35:23;;;;;;;8.87;2.20;;;;;;;;;;5053053;28;20438;-88
2023/11/01 01:37:49;;;;;;;11.00;2.55;;;;;;;;;;5053041;28;20443;-88
2023/11/01 01:40:15;;;;;;;14.20;2.97;;;;;;;;;;5035786;28;20661;-86
2023/11/01 01:42:41;;;;;;;12.50;3.30;;;;;;;;;;5033422;28;20308;-87
2023/11/01 01:45:07;;;;;;;5.72;2.78;;;;;;;;;;5033073;28;20178;-87
2023/11/01 01:47:34;;;;;;;5.95;2.90;;;;;;;;;;5026815;28;20304;-87
2023/11/01 01:50:01;;;;;;;4.38;2.75;;;;;;;;;;5052861;28;20545;-88
2023/11/01 01:52:27;;;;;;;4.90;2.85;;;;;;;;;;5052813;28;20200;-88
2023/11/01 01:54:53;;;;;;;4.28;2.60;;;;;;;;;;5052951;28;20264;-88
2023/11/01 01:57:24;;;;;;;3.28;2.70;;;;;;;;;;5053856;28;20190;-88
2023/11/01 01:59:50;;;;;;;4.07;2.20;;;;;;;;;;5052704;28;20661;-89
2023/11/01 02:02:18;;;;;;;6.40;3.15;;;;;;;;;;5053137;28;20558;-89
2023/11/01 02:04:45;;;;;;;8.43;2.78;;;;;;;;;;5052995;28;20193;-90
2023/11/01 02:07:11;;;;;;;3.47;1.95;;;;;;;;;;5053148;28;20209;-90
2023/11/01 02:09:37;;;;;;;5.60;2.45;;;;;;;;;;5052837;28;20177;-90
2023/11/01 02:12:03;;;;;;;9.32;2.03;;;;;;;;;;5052984;28;20181;-90
2023/11/01 02:14:37;;;;;;;6.50;2.30;;;;;;;;;;5053097;28;20181;-90
2023/11/01 02:17:06;;;;;;;6.20;2.65;;;;;;;;;;5053028;28;20176;-90
2023/11/01 02:19:35;;;;;;;7.22;3.10;;;;;;;;;;5053814;28;20182;-90
2023/11/01 02:22:40;;;;;;;;;;;;;;;;;;;;;
2023/11/01 02:38:11;;;;;;;;;;;;;;;;;;;;;
2023/11/01 02:43:34;;;;;;;;;;;;;;;;;;;;;
2023/11/01 02:46:28;;;;;;;7.85;1.92;;;;;;;;;;4937377;29;20213;-91
2023/11/01 02:48:52;;;;;;;5.90;2.25;;;;;;;;;;4980083;28;20189;-89
2023/11/01 02:51:18;;;;;;;6.67;1.97;;;;;;;;;;5056411;28;20272;-89
2023/11/01 02:53:44;;;;;;;4.10;2.03;;;;;;;;;;5056007;28;20420;-87
2023/11/01 02:56:10;;;;;;;5.03;1.77;;;;;;;;;;5057194;28;20408;-86
2023/11/01 02:58:37;;;;;;;5.32;2.10;;;;;;;;;;5056220;28;20422;-87
2023/11/01 03:01:03;;;;;;;14.02;2.58;;;;;;;;;;5039211;28;20233;-87
2023/11/01 03:03:29;;;;;;;5.35;2.30;;;;;;;;;;5039615;28;20189;-87
2023/11/01 03:05:55;;;;;;;8.70;2.13;;;;;;;;;;5055295;28;20192;-87
2023/11/01 03:08:21;;;;;;;6.10;2.17;;;;;;;;;;5055838;28;20412;-87
2023/11/01 03:10:46;;;;;;;5.60;2.10;;;;;;;;;;5039633;28;20415;-87
2023/11/01 03:13:13;;;;;;;6.90;2.23;;;;;;;;;;5041159;28;20784;-86
2023/11/01 03:15:38;;;;;;;7.88;2.00;;;;;;;;;;5038152;28;20401;-86
2023/11/01 03:18:04;;;;;;;3.53;2.20;;;;;;;;;;5035641;28;20185;-86
2023/11/01 03:20:30;;;;;;;4.50;2.03;;;;;;;;;;5035957;28;20494;-86
2023/11/01 03:22:56;;;;;;;11.27;3.43;;;;;;;;;;5037298;28;20424;-86
2023/11/01 03:25:23;;;;;;;4.25;2.30;;;;;;;;;;5037061;28;20476;-85
2023/11/01 03:27:48;;;;;;;10.13;2.40;;;;;;;;;;5019014;28;20299;-85
2023/11/01 03:30:15;;;;;;;6.63;3.40;;;;;;;;;;5018983;28;20221;-84
2023/11/01 03:32:41;;;;;;;6.75;2.50;;;;;;;;;;5019126;28;20491;-86
2023/11/01 03:35:07;;;;;;;8.20;3.30;;;;;;;;;;5035203;28;20182;-86
2023/11/01 03:37:33;;;;;;;12.02;3.22;;;;;;;;;;5018257;28;20854;-86
2023/11/01 03:39:59;;;;;;;6.72;2.53;;;;;;;;;;5034735;28;20261;-86
2023/11/01 03:42:25;;;;;;;4.15;2.70;;;;;;;;;;5029896;28;20245;-86
2023/11/01 03:44:51;;;;;;;6.60;2.70;;;;;;;;;;5068699;28;20177;-86
2023/11/01 03:47:17;;;;;;;5.85;2.55;;;;;;;;;;5055388;28;20201;-86
2023/11/01 03:49:44;;;;;;;5.07;2.67;;;;;;;;;;5039930;28;20182;-86
2023/11/01 03:52:10;;;;;;;5.95;2.90;;;;;;;;;;5036123;28;20261;-86
2023/11/01 03:54:36;;;;;;;8.13;2.90;;;;;;;;;;5035259;28;20182;-86
2023/11/01 03:57:03;;;;;;;12.33;2.80;;;;;;;;;;5034788;28;20181;-86
2023/11/01 03:59:30;;;;;;;6.75;2.42;;;;;;;;;;5034862;28;20421;-86
2023/11/01 04:01:56;;;;;;;4.47;2.30;;;;;;;;;;5037298;28;20268;-86
2023/11/01 04:04:22;;;;;;;6.97;2.53;;;;;;;;;;5036476;28;20178;-86
2023/11/01 04:06:48;;;;;;;7.67;2.00;;;;;;;;;;5054504;28;20518;-86
2023/11/01 04:09:14;;;;;;;4.80;2.33;;;;;;;;;;5054490;28;20444;-86
2023/11/01 04:11:41;;;;;;;5.23;2.63;;;;;;;;;;5054494;28;20812;-86
2023/11/01 04:14:07;;;;;;;3.28;2.08;;;;;;;;;;5054368;28;20498;-86
2023/11/01 04:16:35;;;;;;;3.20;1.80;;;;;;;;;;5054651;28;20284;-87
2023/11/01 04:19:02;;;;;;;7.95;2.15;;;;;;;;;;5054551;28;20423;-86
2023/11/01 04:21:28;;;;;;;2.90;2.20;;;;;;;;;;5054208;28;20277;-86
2023/11/01 04:23:54;;;;;;;3.47;2.10;;;;;;;;;;5054042;28;20197;-86
2023/11/01 04:26:20;;;;;;;3.93;2.30;;;;;;;;;;5048227;28;20482;-86
2023/11/01 04:28:46;;;;;;;3.47;2.05;;;;;;;;;;5018499;28;20425;-87
2023/11/01 04:31:12;;;;;;;2.45;1.95;;;;;;;;;;5034078;28;20281;-87
2023/11/01 04:33:38;;;;;;;2.37;1.90;;;;;;;;;;5042169;28;20190;-86
2023/11/01 04:36:08;;;;;;;2.75;2.05;;;;;;;;;;5055184;28;20389;-86
2023/11/01 04:38:35;;;;;;;3.45;1.85;;;;;;;;;;5054223;28;20181;-86
2023/11/01 04:41:02;;;;;;;3.42;1.75;;;;;;;;;;5037184;28;20177;-87
2023/11/01 04:43:29;;;;;;;3.47;2.00;;;;;;;;;;5053934;28;20205;-87
2023/11/01 04:45:55;;;;;;;3.90;2.13;;;;;;;;;;5053860;28;20185;-86
2023/11/01 04:48:21;;;;;;;5.40;2.53;;;;;;;;;;5054969;28;20180;-87
2023/11/01 04:50:48;;;;;;;3.75;2.35;;;;;;;;;;5053641;28;20276;-86
2023/11/01 04:53:17;;;;;;;3.05;2.35;;;;;;;;;;5053293;28;20649;-86
2023/11/01 04:55:43;;;;;;;2.55;1.90;;;;;;;;;;5054768;28;20233;-87
2023/11/01 04:58:09;;;;;;;3.95;2.20;;;;;;;;;;5053449;28;20194;-87
2023/11/01 05:00:36;;;;;;;12.70;2.80;;;;;;;;;;5053404;28;20274;-87
2023/11/01 05:03:02;;;;;;;5.90;2.38;;;;;;;;;;5053504;28;20184;-86
2023/11/01 05:05:29;;;;;;;2.95;2.20;;;;;;;;;;5049674;28;20253;-87
2023/11/01 05:07:55;;;;;;;3.63;2.60;;;;;;;;;;5033497;28;20461;-86
2023/11/01 05:10:21;;;;;;;5.40;2.37;;;;;;;;;;5033515;28;20893;-87
2023/11/01 05:12:47;;;;;;;2.47;1.97;;;;;;;;;;5033348;28;20409;-87
2023/11/01 05:15:13;;;;;;;4.43;1.97;;;;;;;;;;5033156;28;20417;-87
2023/11/01 05:17:40;;;;;;;3.50;2.40;;;;;;;;;;5033691;28;20935;-87
2023/11/01 05:20:07;;;;;;;6.82;2.45;;;;;;;;;;5033242;28;20486;-87
2023/11/01 05:22:33;;;;;;;4.72;2.25;;;;;;;;;;5033378;28;20182;-87
2023/11/01 05:24:59;;;;;;;4.28;2.90;;;;;;;;;;5033002;28;20260;-88
2023/11/01 05:27:25;;;;;;;3.05;2.72;;;;;;;;;;5033403;28;20213;-87
2023/11/01 05:29:51;;;;;;;4.95;2.05;;;;;;;;;;5034328;28;20175;-88
2023/11/01 05:32:17;;;;;;;4.35;2.03;;;;;;;;;;5032843;28;20642;-87
2023/11/01 05:34:45;;;;;;;2.28;2.08;;;;;;;;;;5034318;28;20170;-88
2023/11/01 05:37:11;;;;;;;2.45;1.90;;;;;;;;;;5034567;28;20531;-88
2023/11/01 05:39:37;;;;;;;5.18;2.15;;;;;;;;;;5034487;28;20197;-88
2023/11/01 05:42:03;;;;;;;5.18;2.25;;;;;;;;;;5033983;28;20210;-88
2023/11/01 05:44:30;;;;;;;8.15;3.20;;;;;;;;;;5034351;28;20218;-88
2023/11/01 05:46:57;;;;;;;4.00;2.13;;;;;;;;;;5034489;28;20206;-88
2023/11/01 05:49:24;;;;;;;3.15;2.78;;;;;;;;;;5034027;28;20166;-88
2023/11/01 05:51:50;;;;;;;5.72;2.30;;;;;;;;;;5043161;28;20211;-88
2023/11/01 05:54:16;;;;;;;5.17;2.10;;;;;;;;;;5052608;28;20173;-89
2023/11/01 05:56:41;;;;;;;3.30;2.13;;;;;;;;;;5052496;28;20420;-88
2023/11/01 05:59:09;;;;;;;9.20;2.20;;;;;;;;;;5040548;28;20827;-88
2023/11/01 06:01:36;;;;;;;6.38;2.33;;;;;;;;;;5016556;28;20560;-88
2023/11/01 06:04:02;;;;;;;4.95;2.80;;;;;;;;;;5016227;28;20254;-87
2023/11/01 06:06:28;;;;;;;4.55;2.33;;;;;;;;;;5032590;28;20209;-88
2023/11/01 06:08:54;;;;;;;5.07;2.97;;;;;;;;;;5032535;28;20189;-88
2023/11/01 06:11:20;;;;;;;7.00;2.95;;;;;;;;;;5032585;28;20186;-88
2023/11/01 06:13:47;;;;;;;8.65;2.97;;;;;;;;;;5032722;28;20712;-89
2023/11/01 06:16:13;;;;;;;6.43;2.60;;;;;;;;;;5033802;28;20170;-88
2023/11/01 06:18:39;;;;;;;9.73;2.78;;;;;;;;;;5032761;28;20228;-88
2023/11/01 06:21:08;;;;;;;13.25;2.80;;;;;;;;;;5033891;28;20179;-88
2023/11/01 06:23:37;;;;;;;5.78;2.53;;;;;;;;;;5034120;28;20256;-88
2023/11/01 06:26:04;;;;;;;9.70;2.03;;;;;;;;;;5033599;28;20208;-88
2023/11/01 06:28:30;;;;;;;8.20;2.88;;;;;;;;;;5031792;28;20694;-88
2023/11/01 06:30:56;;;;;;;10.00;2.30;;;;;;;;;;5032760;28;20221;-89
2023/11/01 06:33:22;;;;;;;6.13;2.00;;;;;;;;;;5033993;28;20726;-89
2023/11/01 06:35:48;;;;;;;6.60;2.10;;;;;;;;;;5032526;28;20189;-89
2023/11/01 06:38:14;;;;;;;14.20;2.47;;;;;;;;;;5032088;28;20546;-88
2023/11/01 06:40:40;;;;;;;6.60;2.03;;;;;;;;;;5032344;28;20416;-89
2023/11/01 06:43:07;;;;;;;9.17;2.20;;;;;;;;;;5032979;28;20209;-86
2023/11/01 06:45:35;;;;;;;7.10;2.92;;;;;;;;;;5032412;28;20420;-87
2023/11/01 06:48:01;;;;;;;10.65;2.50;;;;;;;;;;5033445;28;20201;-87
2023/11/01 06:50:27;;;;;;;7.43;2.50;;;;;;;;;;5032220;28;20178;-86
2023/11/01 06:52:53;;;;;;;3.80;2.73;;;;;;;;;;5032315;28;20209;-87
2023/11/01 06:55:19;;;;;;;7.47;3.43;;;;;;;;;;5032069;28;20516;-87
2023/11/01 06:57:45;;;;;;;8.97;2.37;;;;;;;;;;5015808;28;20428;-87
2023/11/01 07:00:11;;;;;;;7.20;2.50;;;;;;;;;;5033098;28;20503;-87
2023/11/01 07:02:37;;;;;;;5.85;2.40;;;;;;;;;;5037118;28;20569;-87
2023/11/01 07:05:07;;;;;;;5.90;2.30;;;;;;;;;;5015958;28;20650;-86
2023/11/01 07:07:33;;;;;;;7.57;2.80;;;;;;;;;;5031955;28;20210;-87
2023/11/01 07:10:00;;;;;;;8.20;2.17;;;;;;;;;;5033166;28;20233;-87
2023/11/01 07:12:26;;;;;;;5.78;2.42;;;;;;;;;;5034557;28;20269;-86
2023/11/01 07:14:52;;;;;;;6.18;2.42;;;;;;;;;;5036710;28;20185;-87
2023/11/01 07:17:18;;;;;;;8.50;2.58;;;;;;;;;;5035548;28;20212;-87
2023/11/01 07:19:44;;;;;;;4.30;2.70;;;;;;;;;;5035969;28;20189;-87
2023/11/01 07:22:10;;;;;;;10.53;2.50;;;;;;;;;;5035688;28;20523;-86
2023/11/01 07:24:36;;;;;;;11.23;3.80;;;;;;;;;;5036882;28;20491;-87
2023/11/01 07:27:02;;;;;;;8.85;3.17;;;;;;;;;;5035371;28;20206;-87
2023/11/01 07:29:28;;;;;;;7.65;2.47;;;;;;;;;;5036541;28;20680;-87
2023/11/01 07:31:54;;;;;;;6.88;2.42;;;;;;;;;;5035367;28;20186;-87
2023/11/01 07:34:20;;;;;;;8.27;2.57;;;;;;;;;;5018831;28;20185;-87
2023/11/01 07:36:46;;;;;;;10.67;3.30;;;;;;;;;;5018825;28;20417;-86
2023/11/01 07:39:12;;;;;;;8.27;2.65;;;;;;;;;;5035451;28;20448;-86
2023/11/01 07:41:38;;;;;;;7.03;3.00;;;;;;;;;;5034578;28;20202;-87
2023/11/01 07:44:04;;;;;;;6.97;2.88;;;;;;;;;;5051912;28;20178;-87
2023/11/01 07:46:30;;;;;;;9.70;2.88;;;;;;;;;;5018495;28;20213;-87
2023/11/01 07:48:56;;;;;;;7.20;2.40;;;;;;;;;;5018512;28;20194;-86
2023/11/01 07:51:23;;;;;;;5.87;2.53;;;;;;;;;;5034658;28;20432;-87
2023/11/01 07:53:49;;;;;;;6.38;2.38;;;;;;;;;;5018669;28;20912;-87
2023/11/01 07:56:15;;;;;;;9.35;2.20;;;;;;;;;;5034414;28;20178;-87
2023/11/01 07:58:43;;;;;;;10.07;3.47;;;;;;;;;;5018536;28;20182;-87
2023/11/01 08:01:09;;;;;;;6.15;1.98;;;;;;;;;;5034461;28;20526;-86
2023/11/01 08:03:36;;;;;;;8.15;2.33;;;;;;;;;;5044459;28;20627;-87
2023/11/01 08:06:02;;;;;;;5.28;2.80;;;;;;;;;;5054676;28;20173;-87
2023/11/01 08:08:28;;;;;;;6.45;2.70;;;;;;;;;;5053931;28;20178;-87
2023/11/01 08:10:54;;;;;;;8.07;3.40;;;;;;;;;;5036024;28;20193;-87
2023/11/01 08:13:20;;;;;;;7.60;2.50;;;;;;;;;;5017867;28;20417;-87
2023/11/01 08:15:46;;;;;;;6.22;2.17;;;;;;;;;;5034646;28;20580;-87
2023/11/01 08:18:12;;;;;;;11.57;2.57;;;;;;;;;;5035527;28;20178;-87
2023/11/01 08:20:38;;;;;;;4.60;2.10;;;;;;;;;;5034707;28;20991;-87
2023/11/01 08:23:04;;;;;;;7.33;3.30;;;;;;;;;;5034277;28;20925;-87
2023/11/01 08:25:30;;;;;;;15.98;2.95;;;;;;;;;;5039704;28;20424;-87
2023/11/01 08:27:56;;;;;;;17.30;2.97;;;;;;;;;;5054257;28;20574;-87
2023/11/01 08:30:22;;;;;;;7.40;2.27;;;;;;;;;;5037571;28;20427;-87
2023/11/01 08:32:48;;;;;;;5.30;2.60;;;;;;;;;;5038654;28;20427;-87
2023/11/01 08:35:14;;;;;;;12.40;3.10;;;;;;;;;;5054173;28;20415;-86
2023/11/01 08:37:40;;;;;;;7.40;2.87;;;;;;;;;;5054259;28;20415;-87
2023/11/01 08:40:06;;;;;;;10.50;2.40;;;;;;;;;;5054256;28;20411;-87
2023/11/01 08:42:33;;;;;;;6.87;2.50;;;;;;;;;;5053411;28;20761;-87
2023/11/01 08:44:59;;;;;;;13.07;2.67;;;;;;;;;;5054102;28;20519;-87
2023/11/01 08:47:51;;;;;;;6.90;2.63;;;;;;;;;;5053762;28;20613;-87
2023/11/01 08:50:18;;;;;;;9.73;1.50;;;;;;;;;;5051383;28;20434;-87
2023/11/01 08:52:44;;;;;;;5.17;2.30;;;;;;;;;;5038876;28;20473;-87
2023/11/01 08:55:12;;;;;;;10.50;2.67;;;;;;;;;;5053664;28;20763;-87
2023/11/01 08:57:39;;;;;;;7.53;2.03;;;;;;;;;;5053969;28;20465;-87
2023/11/01 09:00:05;;;;;;;7.07;2.07;;;;;;;;;;5037006;28;21050;-87
2023/11/01 09:02:32;;;;;;;8.00;1.77;;;;;;;;;;5036927;28;20420;-87
2023/11/01 09:04:58;;;;;;;2.63;1.63;;;;;;;;;;5046658;28;20440;-87
2023/11/01 09:07:24;;;;;;;7.10;2.17;;;;;;;;;;5035057;28;20507;-87
2023/11/01 09:09:50;;;;;;;6.23;2.00;;;;;;;;;;5033819;28;20475;-88
2023/11/01 09:12:20;;;;;;;5.77;1.70;;;;;;;;;;5034265;28;20507;-87
2023/11/01 09:14:46;;;;;;;8.57;2.43;;;;;;;;;;5054011;28;20416;-81
2023/11/01 09:17:12;;;;;;;6.07;1.77;;;;;;;;;;5048528;28;20428;-80
2023/11/01 09:19:38;;;;;;;8.80;2.40;;;;;;;;;;5035002;28;20881;-81
2023/11/01 09:22:05;;;;;;;4.03;1.80;;;;;;;;;;5034524;28;20411;-81
2023/11/01 09:24:31;;;;;;;4.60;1.73;;;;;;;;;;5035179;28;20412;-81
2023/11/01 09:26:57;;;;;;;3.50;1.70;;;;;;;;;;5033864;28;20545;-81
2023/11/01 09:29:23;;;;;;;5.37;1.77;;;;;;;;;;5054176;28;20900;-81
2023/11/01 09:31:49;;;;;;;6.40;1.70;;;;;;;;;;5046167;28;20543;-81
2023/11/01 09:34:15;;;;;;;4.67;1.40;;;;;;;;;;5016642;28;20552;-81
2023/11/01 09:36:41;;;;;;;7.03;2.23;;;;;;;;;;5020791;28;20848;-89
2023/11/01 09:39:07;;;;;;;6.10;1.80;;;;;;;;;;5039995;28;20405;-89
2023/11/01 09:41:54;;;;;;;5.50;1.47;;;;;;;;;;5034036;28;20483;-89
2023/11/01 09:44:20;;;;;;;4.00;1.27;;;;;;;;;;5032981;28;20414;-89
2023/11/01 09:46:47;;;;;;;3.63;1.60;;;;;;;;;;5033397;28;20460;-89
2023/11/01 09:49:15;;;;;;;7.13;1.83;;;;;;;;;;5034352;28;20886;-88
2023/11/01 09:51:43;;;;;;;11.00;2.00;;;;;;;;;;5034529;28;20455;-89
2023/11/01 09:54:09;;;;;;;3.63;1.50;;;;;;;;;;5032831;28;20413;-89
2023/11/01 09:56:39;;;;;;;4.17;1.60;;;;;;;;;;5033048;28;20467;-88
2023/11/01 09:59:05;;;;;;;6.60;1.63;;;;;;;;;;5038091;28;20924;-89
2023/11/01 10:01:31;;;;;;;15.00;1.90;;;;;;;;;;5052423;28;20814;-90
2023/11/01 10:03:57;;;;;;;7.13;1.50;;;;;;;;;;5036666;28;20412;-88
2023/11/01 10:06:24;;;;;;;4.53;1.73;;;;;;;;;;5054010;28;20912;-90
2023/11/01 10:08:50;;;;;;;8.40;1.83;;;;;;;;;;5053454;28;20474;-88
2023/11/01 10:11:20;;;;;;;9.53;1.87;;;;;;;;;;5036785;28;20417;-92
2023/11/01 10:13:46;;;;;;;10.60;1.80;;;;;;;;;;5053575;28;20424;-92
2023/11/01 10:16:13;;;;;;;4.63;2.20;;;;;;;;;;5054880;28;20418;-93
2023/11/01 10:18:39;;;;;;;7.67;2.43;;;;;;;;;;5055061;28;20518;-95
2023/11/01 10:21:05;;;;;;;4.43;1.70;;;;;;;;;;5044414;28;20467;-91
2023/11/01 10:23:31;;;;;;;6.60;1.20;;;;;;;;;;5034364;28;20804;-93
2023/11/01 10:25:57;;;;;;;6.10;1.33;;;;;;;;;;5034435;28;20417;-90
2023/11/01 10:28:23;;;;;;;4.57;1.80;;;;;;;;;;5021749;28;20914;-92
2023/11/01 10:30:49;;;;;;;5.90;1.93;;;;;;;;;;5055276;28;20404;-93
2023/11/01 10:33:18;;;;;;;4.73;1.40;;;;;;;;;;5037378;28;20431;-87
2023/11/01 10:35:58;;;;;;;9.70;2.47;;;;;;;;;;5055860;28;20434;-93
2023/11/01 10:38:24;;;;;;;5.27;1.70;;;;;;;;;;5056096;28;20469;-91
2023/11/01 10:40:50;;;;;;;5.17;1.40;;;;;;;;;;5034773;28;20405;-91
2023/11/01 10:43:18;;;;;;;6.80;1.50;;;;;;;;;;5018064;28;20939;-89
2023/11/01 10:45:45;;;;;;;2.83;1.23;;;;;;;;;;5036211;28;20491;-91
2023/11/01 10:48:12;;;;;;;6.77;1.60;;;;;;;;;;5022823;28;20508;-91
2023/11/01 10:50:39;;;;;;;3.90;1.47;;;;;;;;;;5037398;28;20421;-89
2023/11/01 10:53:07;;;;;;;6.03;1.60;;;;;;;;;;5040420;28;20427;-89
2023/11/01 10:55:34;;;;;;;3.83;1.30;;;;;;;;;;5056431;28;20862;-91
2023/11/01 10:58:00;;;;;;;3.80;1.33;;;;;;;;;;5058832;28;20452;-92
2023/11/01 11:00:33;;;;;;;4.63;1.70;;;;;;;;;;5057292;28;20519;-89
2023/11/01 11:03:02;;;;;;;4.70;1.27;;;;;;;;;;5058721;28;20856;-89
2023/11/01 11:05:30;;;;;;;6.17;2.00;;;;;;;;;;5056953;28;20412;-91
2023/11/01 11:07:56;;;;;;;4.40;1.80;;;;;;;;;;5058568;28;20982;-91
2023/11/01 11:10:26;;;;;;;9.30;2.13;;;;;;;;;;5056969;28;20416;-88
2023/11/01 11:13:16;;;;;;;3.00;1.67;;;;;;;;;;5056690;28;20414;-88
2023/11/01 11:18:23;;;;;;;7.30;1.87;;;;;;;;;;5037921;28;20409;-91
2023/11/01 11:20:53;;;;;;;5.00;1.90;;;;;;;;;;5038570;28;20421;-83
2023/11/01 11:23:21;;;;;;;7.93;2.07;;;;;;;;;;5037653;28;20416;-84
2023/11/01 11:25:49;;;;;;;3.23;1.60;;;;;;;;;;5020535;28;20432;-91
2023/11/01 11:28:18;;;;;;;5.10;1.83;;;;;;;;;;5036209;28;20460;-89
2023/11/01 11:31:06;;;;;;;4.87;1.90;;;;;;;;;;5038006;28;20401;-92
2023/11/01 11:33:58;;;;;;;7.57;1.70;;;;;;;;;;5032875;28;20476;-92
2023/11/01 11:36:26;;;;;;;4.00;1.90;;;;;;;;;;5033274;28;20425;-88
2023/11/01 11:38:56;;;;;;;6.00;2.40;;;;;;;;;;5019563;28;20409;-92
2023/11/01 11:41:23;;;;;;;9.10;2.30;;;;;;;;;;5033140;28;20422;-90
2023/11/01 11:44:07;;;;;;;5.23;1.90;;;;;;;;;;5033618;28;20903;-85
2023/11/01 11:46:38;;;;;;;5.43;2.23;;;;;;;;;;5033740;28;20462;-86
2023/11/01 11:49:27;;;;;;;4.23;1.50;;;;;;;;;;5036267;28;20970;-92
2023/11/01 11:51:59;;;;;;;9.03;3.33;;;;;;;;;;5030101;28;20433;-91
2023/11/01 11:54:26;;;;;;;4.80;1.73;;;;;;;;;;5035381;28;20433;-90
2023/11/01 11:56:56;;;;;;;7.47;2.80;;;;;;;;;;5037749;28;20444;-89
2023/11/01 11:59:24;;;;;;;5.53;2.43;;;;;;;;;;5043573;28;20417;-86
2023/11/01 12:01:52;;;;;;;7.50;2.70;;;;;;;;;;5036815;28;20491;-89
2023/11/01 12:04:18;;;;;;;7.20;3.30;;;;;;;;;;5036834;28;20417;-89
2023/11/01 12:06:46;;;;;;;9.90;3.33;;;;;;;;;;5018889;28;20663;-84
2023/11/01 12:09:18;;;;;;;10.70;2.77;;;;;;;;;;5050820;28;20412;-90
2023/11/01 12:11:45;;;;;;;6.73;2.37;;;;;;;;;;5055295;28;20412;-89
2023/11/01 12:14:12;;;;;;;8.60;3.03;;;;;;;;;;5055606;28;20419;-91
2023/11/01 12:16:38;;;;;;;7.90;3.90;;;;;;;;;;5051360;28;20448;-90
2023/11/01 12:19:21;;;;;;;5.83;2.07;;;;;;;;;;5035289;28;20508;-87
2023/11/01 12:21:51;;;;;;;10.33;2.03;;;;;;;;;;5035354;28;20440;-86
2023/11/01 12:24:19;;;;;;;9.60;2.80;;;;;;;;;;5056384;28;20851;-88
2023/11/01 12:27:00;;;;;;;6.40;2.20;;;;;;;;;;5047428;28;20551;-84
2023/11/01 12:29:32;;;;;;;6.57;2.20;;;;;;;;;;5037114;28;20424;-87
2023/11/01 12:32:28;;;;;;;7.63;2.00;;;;;;;;;;5035093;28;20413;-88
2023/11/01 12:35:04;;;;;;;8.90;2.40;;;;;;;;;;5035082;28;20409;-89
2023/11/01 12:37:31;;;;;;;6.93;1.70;;;;;;;;;;5036027;28;20396;-89
2023/11/01 12:40:00;;;;;;;9.57;3.03;;;;;;;;;;5047462;28;20424;-89
2023/11/01 12:42:28;;;;;;;6.30;1.77;;;;;;;;;;5055746;28;20419;-89
2023/11/01 12:44:54;;;;;;;9.03;1.70;;;;;;;;;;5055942;28;20396;-88
2023/11/01 12:47:21;;;;;;;7.40;2.20;;;;;;;;;;5054564;28;20876;-84
2023/11/01 12:49:51;;;;;;;11.80;2.27;;;;;;;;;;5054732;28;20442;-87
2023/11/01 12:52:18;;;;;;;4.43;1.70;;;;;;;;;;5056348;28;20384;-88
2023/11/01 12:54:44;;;;;;;5.63;2.10;;;;;;;;;;5056555;28;20735;-89
2023/11/01 12:57:11;;;;;;;7.10;1.93;;;;;;;;;;5036470;28;20419;-91
2023/11/01 12:59:37;;;;;;;4.80;1.90;;;;;;;;;;5037625;28;20867;-90
2023/11/01 13:02:04;;;;;;;4.90;2.60;;;;;;;;;;5054540;28;20465;-88
2023/11/01 13:04:30;;;;;;;5.37;2.43;;;;;;;;;;5054873;28;20424;-89
2023/11/01 13:06:57;;;;;;;6.53;1.80;;;;;;;;;;5053995;28;20562;-86
2023/11/01 13:09:24;;;;;;;8.03;1.67;;;;;;;;;;5055599;28;20409;-90
2023/11/01 13:11:50;;;;;;;3.90;1.67;;;;;;;;;;5037683;28;20408;-88
2023/11/01 13:14:16;;;;;;;5.73;1.90;;;;;;;;;;5055181;28;20430;-90
2023/11/01 13:16:42;;;;;;;5.87;2.67;;;;;;;;;;5037998;28;20474;-89
2023/11/01 13:19:08;;;;;;;7.00;2.80;;;;;;;;;;5054505;28;20412;-88
2023/11/01 13:21:34;;;;;;;7.83;1.50;;;;;;;;;;5053113;28;20426;-89
2023/11/01 13:24:00;;;;;;;6.77;1.70;;;;;;;;;;5054119;28;20495;-89
2023/11/01 13:26:26;;;;;;;5.47;1.50;;;;;;;;;;5043701;28;20931;-86
2023/11/01 13:28:52;;;;;;;4.93;1.60;;;;;;;;;;5017856;28;20421;-90
2023/11/01 13:31:18;;;;;;;4.30;1.73;;;;;;;;;;5017158;28;20494;-89
2023/11/01 13:33:44;;;;;;;7.30;2.40;;;;;;;;;;5018038;28;20421;-89
2023/11/01 13:36:11;;;;;;;8.70;2.13;;;;;;;;;;5051727;28;20443;-88
2023/11/01 13:38:37;;;;;;;3.33;1.90;;;;;;;;;;5053618;28;20491;-88
2023/11/01 13:41:03;;;;;;;7.97;3.37;;;;;;;;;;5053891;28;20423;-89
2023/11/01 13:43:29;;;;;;;9.37;2.50;;;;;;;;;;5053289;28;20416;-84
2023/11/01 13:45:55;;;;;;;8.30;1.90;;;;;;;;;;5053896;28;20863;-90
2023/11/01 13:48:22;;;;;;;6.57;3.10;;;;;;;;;;5037160;28;20504;-88
2023/11/01 13:50:48;;;;;;;6.67;2.30;;;;;;;;;;5054628;28;20451;-89
2023/11/01 13:53:15;;;;;;;6.00;2.80;;;;;;;;;;5055213;28;20415;-89
2023/11/01 13:55:45;;;;;;;7.53;3.13;;;;;;;;;;5053929;28;20416;-88
2023/11/01 13:58:12;;;;;;;3.37;1.70;;;;;;;;;;5035159;28;20463;-88
2023/11/01 14:00:38;;;;;;;5.40;1.57;;;;;;;;;;5033662;28;20560;-84
2023/11/01 14:03:04;;;;;;;10.00;3.37;;;;;;;;;;5033477;28;20417;-86
2023/11/01 14:05:31;;;;;;;6.90;2.00;;;;;;;;;;5036676;28;20412;-86
2023/11/01 14:07:57;;;;;;;6.07;2.13;;;;;;;;;;5053290;28;20999;-87
2023/11/01 14:10:23;;;;;;;7.60;2.27;;;;;;;;;;5053952;28;20494;-87
2023/11/01 14:12:50;;;;;;;8.00;3.63;;;;;;;;;;5052501;28;20423;-85
2023/11/01 14:15:18;;;;;;;5.50;1.87;;;;;;;;;;5055206;28;20459;-81
2023/11/01 14:17:44;;;;;;;12.40;3.03;;;;;;;;;;5058846;28;20468;-85
2023/11/01 14:20:10;;;;;;;6.53;2.30;;;;;;;;;;5059105;28;20428;-86
2023/11/01 14:22:43;;;;;;;4.20;2.07;;;;;;;;;;5058073;28;20416;-85
2023/11/01 14:25:12;;;;;;;3.83;2.27;;;;;;;;;;5053551;28;20411;-85
2023/11/01 14:27:40;;;;;;;3.50;1.97;;;;;;;;;;5052652;28;20460;-86
2023/11/01 14:30:07;;;;;;;8.43;2.20;;;;;;;;;;5052986;28;20420;-83
2023/11/01 14:32:33;;;;;;;4.77;2.77;;;;;;;;;;5035834;28;20454;-84
2023/11/01 14:34:59;;;;;;;8.03;2.70;;;;;;;;;;5052635;28;20412;-84
2023/11/01 14:37:25;;;;;;;4.93;2.80;;;;;;;;;;5052486;28;20503;-83
2023/11/01 14:39:51;;;;;;;7.73;2.30;;;;;;;;;;5053371;28;20416;-85
2023/11/01 14:42:17;;;;;;;5.27;3.10;;;;;;;;;;5036152;28;20416;-84
2023/11/01 14:44:43;;;;;;;5.83;2.47;;;;;;;;;;5053880;28;20422;-84
2023/11/01 14:47:09;;;;;;;5.73;2.73;;;;;;;;;;5028608;28;20494;-83
2023/11/01 14:49:35;;;;;;;7.10;2.50;;;;;;;;;;5032874;28;20507;-84
2023/11/01 14:52:02;;;;;;;2.43;1.80;;;;;;;;;;5034047;28;20401;-84
2023/11/01 14:54:30;;;;;;;5.93;2.73;;;;;;;;;;5034019;28;20408;-84
2023/11/01 14:56:56;;;;;;;11.17;2.40;;;;;;;;;;5032858;28;20427;-84
2023/11/01 14:59:22;;;;;;;6.97;2.50;;;;;;;;;;5034281;28;20399;-85
2023/11/01 15:01:50;;;;;;;5.03;2.00;;;;;;;;;;5032226;28;20472;-84
2023/11/01 15:04:16;;;;;;;4.73;1.73;;;;;;;;;;5034137;28;20420;-84